Windhoek, Namibia
Current Conditions -  °F | °C
As of 2:00 PM on Tuesday 25 Nov 2014 (Local Time) from FYWE Reporting Station
Scattered Clouds Scattered Clouds  
Wind Chill: 33°   Ceiling: Unl
Heat Index: 33°   Visibility: 6mi
Dew Point:   Wind: 7mph
Humidity: 12%   Direction: 70°ENE
Pressure: 30.06"   Gusts: NA
Location:  22.56°S, 17.09°E
Report Text: FYWE 251300Z 07006KT 9999 FEW045CB SCT050TCU 33/00 Q1018
Loading
Personal Weather Stations






























Interactive Weather Map New forecast layout! Learn more

10-Day Weather Forecast

Advertisements
Track Severe Weather on mobile